sensor_id;sensor_type;location;lat;lon;timestamp;temperature;humidity
7445;DHT22;3764;48.126;11.594;2023-12-07T00:01:45;2.90;99.90
7445;DHT22;3764;48.126;11.594;2023-12-07T00:04:12;2.90;99.90
7445;DHT22;3764;48.126;11.594;2023-12-07T00:06:40;2.90;99.90
7445;DHT22;3764;48.126;11.594;2023-12-07T00:09:07;2.90;99.90
7445;DHT22;3764;48.126;11.594;2023-12-07T00:11:35;2.90;99.90
7445;DHT22;3764;48.126;11.594;2023-12-07T00:14:02;2.90;99.90
7445;DHT22;3764;48.126;11.594;2023-12-07T00:16:29;2.90;99.90
7445;DHT22;3764;48.126;11.594;2023-12-07T00:18:56;2.90;99.90
7445;DHT22;3764;48.126;11.594;2023-12-07T00:21:23;2.90;99.90
7445;DHT22;3764;48.126;11.594;2023-12-07T00:23:52;2.80;99.90
7445;DHT22;3764;48.126;11.594;2023-12-07T00:26:20;2.80;99.90
7445;DHT22;3764;48.126;11.594;2023-12-07T00:28:47;2.80;99.90
7445;DHT22;3764;48.126;11.594;2023-12-07T00:31:14;2.80;99.90
7445;DHT22;3764;48.126;11.594;2023-12-07T00:33:41;2.80;99.90
7445;DHT22;3764;48.126;11.594;2023-12-07T00:36:08;2.90;99.90
7445;DHT22;3764;48.126;11.594;2023-12-07T00:38:36;2.80;99.90
7445;DHT22;3764;48.126;11.594;2023-12-07T00:41:04;2.80;99.90
7445;DHT22;3764;48.126;11.594;2023-12-07T00:43:32;2.80;99.90
7445;DHT22;3764;48.126;11.594;2023-12-07T00:46:00;2.80;99.90
7445;DHT22;3764;48.126;11.594;2023-12-07T00:48:28;2.80;99.90
7445;DHT22;3764;48.126;11.594;2023-12-07T00:50:55;2.80;99.90
7445;DHT22;3764;48.126;11.594;2023-12-07T00:53:22;2.70;99.90
7445;DHT22;3764;48.126;11.594;2023-12-07T00:55:49;2.70;99.90
7445;DHT22;3764;48.126;11.594;2023-12-07T00:58:18;2.70;99.90
7445;DHT22;3764;48.126;11.594;2023-12-07T01:00:45;2.70;99.90
7445;DHT22;3764;48.126;11.594;2023-12-07T01:03:13;2.70;99.90
7445;DHT22;3764;48.126;11.594;2023-12-07T01:05:40;2.70;99.90
7445;DHT22;3764;48.126;11.594;2023-12-07T01:08:07;2.70;99.90
7445;DHT22;3764;48.126;11.594;2023-12-07T01:10:34;2.70;99.90
7445;DHT22;3764;48.126;11.594;2023-12-07T01:13:01;2.70;99.90
7445;DHT22;3764;48.126;11.594;2023-12-07T01:15:32;2.60;99.90
7445;DHT22;3764;48.126;11.594;2023-12-07T01:18:00;2.60;99.90
7445;DHT22;3764;48.126;11.594;2023-12-07T01:20:27;2.60;99.90
7445;DHT22;3764;48.126;11.594;2023-12-07T01:22:54;2.60;99.90
7445;DHT22;3764;48.126;11.594;2023-12-07T01:25:21;2.60;99.90
7445;DHT22;3764;48.126;11.594;2023-12-07T01:27:50;2.60;99.90
7445;DHT22;3764;48.126;11.594;2023-12-07T01:30:17;2.50;99.90
7445;DHT22;3764;48.126;11.594;2023-12-07T01:32:45;2.60;99.90
7445;DHT22;3764;48.126;11.594;2023-12-07T01:35:13;2.50;99.90
7445;DHT22;3764;48.126;11.594;2023-12-07T01:37:41;2.50;99.90
7445;DHT22;3764;48.126;11.594;2023-12-07T01:40:09;2.50;99.90
7445;DHT22;3764;48.126;11.594;2023-12-07T01:42:36;2.50;99.90
7445;DHT22;3764;48.126;11.594;2023-12-07T01:45:05;2.50;99.90
7445;DHT22;3764;48.126;11.594;2023-12-07T01:47:33;2.50;99.90
7445;DHT22;3764;48.126;11.594;2023-12-07T01:50:03;2.50;99.90
7445;DHT22;3764;48.126;11.594;2023-12-07T01:52:32;2.50;99.90
7445;DHT22;3764;48.126;11.594;2023-12-07T01:55:01;2.50;99.90
7445;DHT22;3764;48.126;11.594;2023-12-07T01:57:29;2.40;99.90
7445;DHT22;3764;48.126;11.594;2023-12-07T01:59:56;2.40;99.90
7445;DHT22;3764;48.126;11.594;2023-12-07T02:02:23;2.40;99.90
7445;DHT22;3764;48.126;11.594;2023-12-07T02:04:50;2.40;99.90
7445;DHT22;3764;48.126;11.594;2023-12-07T02:07:19;2.40;99.90
7445;DHT22;3764;48.126;11.594;2023-12-07T02:09:47;2.40;99.90
7445;DHT22;3764;48.126;11.594;2023-12-07T02:12:14;2.30;99.90
7445;DHT22;3764;48.126;11.594;2023-12-07T02:14:41;2.30;99.90
7445;DHT22;3764;48.126;11.594;2023-12-07T02:17:14;2.30;99.90
7445;DHT22;3764;48.126;11.594;2023-12-07T02:19:52;2.30;99.90
7445;DHT22;3764;48.126;11.594;2023-12-07T02:22:27;2.20;99.90
7445;DHT22;3764;48.126;11.594;2023-12-07T02:25:07;2.30;99.90
7445;DHT22;3764;48.126;11.594;2023-12-07T02:27:39;2.20;99.90
7445;DHT22;3764;48.126;11.594;2023-12-07T02:30:09;2.20;99.90
7445;DHT22;3764;48.126;11.594;2023-12-07T02:32:37;2.10;99.90
7445;DHT22;3764;48.126;11.594;2023-12-07T02:35:05;2.10;99.90
7445;DHT22;3764;48.126;11.594;2023-12-07T02:37:35;2.10;99.90
7445;DHT22;3764;48.126;11.594;2023-12-07T02:40:06;2.10;99.90
7445;DHT22;3764;48.126;11.594;2023-12-07T02:42:38;2.10;99.90
7445;DHT22;3764;48.126;11.594;2023-12-07T02:45:07;2.00;99.90
7445;DHT22;3764;48.126;11.594;2023-12-07T02:47:35;2.00;99.90
7445;DHT22;3764;48.126;11.594;2023-12-07T02:50:04;1.90;99.90
7445;DHT22;3764;48.126;11.594;2023-12-07T02:52:31;1.80;99.90
7445;DHT22;3764;48.126;11.594;2023-12-07T02:54:58;1.80;99.90
7445;DHT22;3764;48.126;11.594;2023-12-07T02:57:25;1.80;99.90
7445;DHT22;3764;48.126;11.594;2023-12-07T02:59:54;1.80;99.90
7445;DHT22;3764;48.126;11.594;2023-12-07T03:02:21;1.80;99.90
7445;DHT22;3764;48.126;11.594;2023-12-07T03:04:48;1.80;99.90
7445;DHT22;3764;48.126;11.594;2023-12-07T03:07:16;1.80;99.90
7445;DHT22;3764;48.126;11.594;2023-12-07T03:09:43;1.80;99.90
7445;DHT22;3764;48.126;11.594;2023-12-07T03:12:10;1.80;99.90
7445;DHT22;3764;48.126;11.594;2023-12-07T03:14:37;1.80;99.90
7445;DHT22;3764;48.126;11.594;2023-12-07T03:17:06;1.70;99.90
7445;DHT22;3764;48.126;11.594;2023-12-07T03:19:33;1.70;99.90
7445;DHT22;3764;48.126;11.594;2023-12-07T03:22:04;1.70;99.90
7445;DHT22;3764;48.126;11.594;2023-12-07T03:24:32;1.70;99.90
7445;DHT22;3764;48.126;11.594;2023-12-07T03:26:59;1.70;99.90
7445;DHT22;3764;48.126;11.594;2023-12-07T03:29:26;1.80;99.90
7445;DHT22;3764;48.126;11.594;2023-12-07T03:31:53;1.80;99.90
7445;DHT22;3764;48.126;11.594;2023-12-07T03:34:22;1.80;99.90
7445;DHT22;3764;48.126;11.594;2023-12-07T03:36:49;1.80;99.90
7445;DHT22;3764;48.126;11.594;2023-12-07T03:39:17;1.70;99.90
7445;DHT22;3764;48.126;11.594;2023-12-07T03:41:47;1.80;99.90
7445;DHT22;3764;48.126;11.594;2023-12-07T03:44:14;1.70;99.90
7445;DHT22;3764;48.126;11.594;2023-12-07T03:46:42;1.70;99.90
7445;DHT22;3764;48.126;11.594;2023-12-07T03:49:09;1.70;99.90
7445;DHT22;3764;48.126;11.594;2023-12-07T03:51:37;1.80;99.90
7445;DHT22;3764;48.126;11.594;2023-12-07T03:54:05;1.80;99.90
7445;DHT22;3764;48.126;11.594;2023-12-07T03:56:33;1.80;99.90
7445;DHT22;3764;48.126;11.594;2023-12-07T03:59:00;1.80;99.90
7445;DHT22;3764;48.126;11.594;2023-12-07T04:01:28;1.80;99.90
7445;DHT22;3764;48.126;11.594;2023-12-07T04:03:57;1.70;99.90
7445;DHT22;3764;48.126;11.594;2023-12-07T04:06:24;1.70;99.90
7445;DHT22;3764;48.126;11.594;2023-12-07T04:08:53;1.70;99.90
7445;DHT22;3764;48.126;11.594;2023-12-07T04:11:21;1.70;99.90
7445;DHT22;3764;48.126;11.594;2023-12-07T04:13:48;1.70;99.90
7445;DHT22;3764;48.126;11.594;2023-12-07T04:16:15;1.70;99.90
7445;DHT22;3764;48.126;11.594;2023-12-07T04:18:43;1.70;99.90
7445;DHT22;3764;48.126;11.594;2023-12-07T04:21:10;1.70;99.90
7445;DHT22;3764;48.126;11.594;2023-12-07T04:23:37;1.80;99.90
7445;DHT22;3764;48.126;11.594;2023-12-07T04:26:06;1.80;99.90
7445;DHT22;3764;48.126;11.594;2023-12-07T04:28:33;1.80;99.90
7445;DHT22;3764;48.126;11.594;2023-12-07T04:31:00;1.80;99.90
7445;DHT22;3764;48.126;11.594;2023-12-07T04:33:28;1.70;99.90
7445;DHT22;3764;48.126;11.594;2023-12-07T04:35:55;1.70;99.90
7445;DHT22;3764;48.126;11.594;2023-12-07T04:38:22;1.60;99.90
7445;DHT22;3764;48.126;11.594;2023-12-07T04:40:49;1.60;99.90
7445;DHT22;3764;48.126;11.594;2023-12-07T04:43:18;1.60;99.90
7445;DHT22;3764;48.126;11.594;2023-12-07T04:45:45;1.50;99.90
7445;DHT22;3764;48.126;11.594;2023-12-07T04:48:12;1.40;99.90
7445;DHT22;3764;48.126;11.594;2023-12-07T04:50:40;1.40;99.90
7445;DHT22;3764;48.126;11.594;2023-12-07T04:53:07;1.40;99.90
7445;DHT22;3764;48.126;11.594;2023-12-07T04:55:34;1.30;99.90
7445;DHT22;3764;48.126;11.594;2023-12-07T04:58:01;1.30;99.90
7445;DHT22;3764;48.126;11.594;2023-12-07T05:00:30;1.30;99.90
7445;DHT22;3764;48.126;11.594;2023-12-07T05:02:57;1.20;99.90
7445;DHT22;3764;48.126;11.594;2023-12-07T05:05:24;1.20;99.90
7445;DHT22;3764;48.126;11.594;2023-12-07T05:07:51;1.20;99.90
7445;DHT22;3764;48.126;11.594;2023-12-07T05:10:18;1.20;99.90
7445;DHT22;3764;48.126;11.594;2023-12-07T05:12:46;1.20;99.90
7445;DHT22;3764;48.126;11.594;2023-12-07T05:15:13;1.10;99.90
7445;DHT22;3764;48.126;11.594;2023-12-07T05:17:42;1.10;99.90
7445;DHT22;3764;48.126;11.594;2023-12-07T05:20:09;1.10;99.90
7445;DHT22;3764;48.126;11.594;2023-12-07T05:22:38;1.10;99.90
7445;DHT22;3764;48.126;11.594;2023-12-07T05:25:06;1.10;99.90
7445;DHT22;3764;48.126;11.594;2023-12-07T05:27:34;1.10;99.90
7445;DHT22;3764;48.126;11.594;2023-12-07T05:30:01;1.10;99.90
7445;DHT22;3764;48.126;11.594;2023-12-07T05:32:28;1.10;99.90
7445;DHT22;3764;48.126;11.594;2023-12-07T05:34:57;1.10;99.90
7445;DHT22;3764;48.126;11.594;2023-12-07T05:37:24;1.10;99.90
7445;DHT22;3764;48.126;11.594;2023-12-07T05:39:52;1.10;99.90
7445;DHT22;3764;48.126;11.594;2023-12-07T05:42:19;1.10;99.90
7445;DHT22;3764;48.126;11.594;2023-12-07T05:44:46;1.10;99.90
7445;DHT22;3764;48.126;11.594;2023-12-07T05:47:13;1.10;99.90
7445;DHT22;3764;48.126;11.594;2023-12-07T05:49:40;1.00;99.90
7445;DHT22;3764;48.126;11.594;2023-12-07T05:52:09;1.00;99.90
7445;DHT22;3764;48.126;11.594;2023-12-07T05:54:36;1.00;99.90
7445;DHT22;3764;48.126;11.594;2023-12-07T05:57:03;1.00;99.90
7445;DHT22;3764;48.126;11.594;2023-12-07T05:59:31;1.00;99.90
7445;DHT22;3764;48.126;11.594;2023-12-07T06:01:58;1.00;99.90
7445;DHT22;3764;48.126;11.594;2023-12-07T06:04:25;1.00;99.90
7445;DHT22;3764;48.126;11.594;2023-12-07T06:06:53;0.90;99.90
7445;DHT22;3764;48.126;11.594;2023-12-07T06:09:21;0.90;99.90
7445;DHT22;3764;48.126;11.594;2023-12-07T06:11:48;0.90;99.90
7445;DHT22;3764;48.126;11.594;2023-12-07T06:14:15;0.90;99.90
7445;DHT22;3764;48.126;11.594;2023-12-07T06:16:43;0.90;99.90
7445;DHT22;3764;48.126;11.594;2023-12-07T06:19:10;0.80;99.90
7445;DHT22;3764;48.126;11.594;2023-12-07T06:21:37;0.80;99.90
7445;DHT22;3764;48.126;11.594;2023-12-07T06:24:05;0.90;99.90
7445;DHT22;3764;48.126;11.594;2023-12-07T06:26:34;0.80;99.90
7445;DHT22;3764;48.126;11.594;2023-12-07T06:29:01;0.80;99.90
7445;DHT22;3764;48.126;11.594;2023-12-07T06:31:28;0.80;99.90
7445;DHT22;3764;48.126;11.594;2023-12-07T06:33:56;0.80;99.90
7445;DHT22;3764;48.126;11.594;2023-12-07T06:36:23;0.80;99.90
7445;DHT22;3764;48.126;11.594;2023-12-07T06:38:51;0.80;99.90
7445;DHT22;3764;48.126;11.594;2023-12-07T06:41:19;0.80;99.90
7445;DHT22;3764;48.126;11.594;2023-12-07T06:43:47;0.90;99.90
7445;DHT22;3764;48.126;11.594;2023-12-07T06:46:14;0.90;99.90
7445;DHT22;3764;48.126;11.594;2023-12-07T06:48:42;0.90;99.90
7445;DHT22;3764;48.126;11.594;2023-12-07T06:51:09;0.90;99.90
7445;DHT22;3764;48.126;11.594;2023-12-07T06:53:36;0.90;99.90
7445;DHT22;3764;48.126;11.594;2023-12-07T06:56:04;0.90;99.90
7445;DHT22;3764;48.126;11.594;2023-12-07T06:58:31;0.80;99.90
7445;DHT22;3764;48.126;11.594;2023-12-07T07:01:00;0.80;99.90
7445;DHT22;3764;48.126;11.594;2023-12-07T07:03:27;0.80;99.90
7445;DHT22;3764;48.126;11.594;2023-12-07T07:05:54;0.70;99.90
7445;DHT22;3764;48.126;11.594;2023-12-07T07:08:22;0.70;99.90
7445;DHT22;3764;48.126;11.594;2023-12-07T07:10:49;0.70;99.90
7445;DHT22;3764;48.126;11.594;2023-12-07T07:13:16;0.70;99.90
7445;DHT22;3764;48.126;11.594;2023-12-07T07:15:46;0.70;99.90
7445;DHT22;3764;48.126;11.594;2023-12-07T07:18:15;0.80;99.90
7445;DHT22;3764;48.126;11.594;2023-12-07T07:20:42;0.90;99.90
7445;DHT22;3764;48.126;11.594;2023-12-07T07:23:10;0.90;99.90
7445;DHT22;3764;48.126;11.594;2023-12-07T07:25:38;1.00;99.90
7445;DHT22;3764;48.126;11.594;2023-12-07T07:28:05;0.90;99.90
7445;DHT22;3764;48.126;11.594;2023-12-07T07:30:33;0.90;99.90
7445;DHT22;3764;48.126;11.594;2023-12-07T07:33:00;0.90;99.90
7445;DHT22;3764;48.126;11.594;2023-12-07T07:35:29;0.90;99.90
7445;DHT22;3764;48.126;11.594;2023-12-07T07:37:56;0.90;99.90
7445;DHT22;3764;48.126;11.594;2023-12-07T07:40:23;0.80;99.90
7445;DHT22;3764;48.126;11.594;2023-12-07T07:42:52;0.80;99.90
7445;DHT22;3764;48.126;11.594;2023-12-07T07:45:19;0.80;99.90
7445;DHT22;3764;48.126;11.594;2023-12-07T07:47:46;0.80;99.90
7445;DHT22;3764;48.126;11.594;2023-12-07T07:50:13;0.90;99.90
7445;DHT22;3764;48.126;11.594;2023-12-07T07:52:43;0.90;99.90
7445;DHT22;3764;48.126;11.594;2023-12-07T07:55:11;1.00;99.90
7445;DHT22;3764;48.126;11.594;2023-12-07T07:57:38;1.00;99.90
7445;DHT22;3764;48.126;11.594;2023-12-07T08:00:06;1.00;99.90
7445;DHT22;3764;48.126;11.594;2023-12-07T08:02:34;1.00;99.90
7445;DHT22;3764;48.126;11.594;2023-12-07T08:05:02;1.00;99.90
7445;DHT22;3764;48.126;11.594;2023-12-07T08:07:29;1.00;99.90
7445;DHT22;3764;48.126;11.594;2023-12-07T08:09:57;1.00;99.90
7445;DHT22;3764;48.126;11.594;2023-12-07T08:12:25;1.10;99.90
7445;DHT22;3764;48.126;11.594;2023-12-07T08:14:52;1.10;99.90
7445;DHT22;3764;48.126;11.594;2023-12-07T08:17:19;1.10;99.90
7445;DHT22;3764;48.126;11.594;2023-12-07T08:19:47;1.10;99.90
7445;DHT22;3764;48.126;11.594;2023-12-07T08:22:14;1.10;99.90
7445;DHT22;3764;48.126;11.594;2023-12-07T08:24:41;1.10;99.90
7445;DHT22;3764;48.126;11.594;2023-12-07T08:27:10;1.10;99.90
7445;DHT22;3764;48.126;11.594;2023-12-07T08:29:37;1.10;99.90
7445;DHT22;3764;48.126;11.594;2023-12-07T08:32:05;1.20;99.90
7445;DHT22;3764;48.126;11.594;2023-12-07T08:34:32;1.20;99.90
7445;DHT22;3764;48.126;11.594;2023-12-07T08:36:59;1.20;99.90
7445;DHT22;3764;48.126;11.594;2023-12-07T08:39:26;1.20;99.90
7445;DHT22;3764;48.126;11.594;2023-12-07T08:41:54;1.30;99.90
7445;DHT22;3764;48.126;11.594;2023-12-07T08:44:22;1.30;99.90
7445;DHT22;3764;48.126;11.594;2023-12-07T08:46:50;1.30;99.90
7445;DHT22;3764;48.126;11.594;2023-12-07T08:49:17;1.40;99.90
7445;DHT22;3764;48.126;11.594;2023-12-07T08:51:44;1.50;99.90
7445;DHT22;3764;48.126;11.594;2023-12-07T08:54:11;1.50;99.90
7445;DHT22;3764;48.126;11.594;2023-12-07T08:56:38;1.50;99.90
7445;DHT22;3764;48.126;11.594;2023-12-07T08:59:05;1.60;99.90
7445;DHT22;3764;48.126;11.594;2023-12-07T09:01:34;1.60;99.90
7445;DHT22;3764;48.126;11.594;2023-12-07T09:04:01;1.60;99.90
7445;DHT22;3764;48.126;11.594;2023-12-07T09:06:29;1.60;99.90
7445;DHT22;3764;48.126;11.594;2023-12-07T09:08:56;1.60;99.90
7445;DHT22;3764;48.126;11.594;2023-12-07T09:11:23;1.60;99.90
7445;DHT22;3764;48.126;11.594;2023-12-07T09:13:50;1.70;99.90
7445;DHT22;3764;48.126;11.594;2023-12-07T09:16:18;1.60;99.90
7445;DHT22;3764;48.126;11.594;2023-12-07T09:18:48;1.70;99.90
7445;DHT22;3764;48.126;11.594;2023-12-07T09:21:16;1.70;99.90
7445;DHT22;3764;48.126;11.594;2023-12-07T09:23:43;1.70;99.90
7445;DHT22;3764;48.126;11.594;2023-12-07T09:26:10;1.70;99.90
7445;DHT22;3764;48.126;11.594;2023-12-07T09:28:38;1.70;99.90
7445;DHT22;3764;48.126;11.594;2023-12-07T09:31:06;1.80;99.90
7445;DHT22;3764;48.126;11.594;2023-12-07T09:33:33;1.80;99.90
7445;DHT22;3764;48.126;11.594;2023-12-07T09:36:01;1.90;99.90
7445;DHT22;3764;48.126;11.594;2023-12-07T09:38:35;1.90;99.90
7445;DHT22;3764;48.126;11.594;2023-12-07T09:41:03;1.90;99.90
7445;DHT22;3764;48.126;11.594;2023-12-07T09:43:31;2.00;99.90
7445;DHT22;3764;48.126;11.594;2023-12-07T09:45:58;2.00;99.90
7445;DHT22;3764;48.126;11.594;2023-12-07T09:48:26;2.00;99.90
7445;DHT22;3764;48.126;11.594;2023-12-07T09:50:56;2.00;99.90
7445;DHT22;3764;48.126;11.594;2023-12-07T09:53:24;2.10;99.90
7445;DHT22;3764;48.126;11.594;2023-12-07T09:55:52;2.10;99.90
7445;DHT22;3764;48.126;11.594;2023-12-07T09:58:19;2.10;99.90
7445;DHT22;3764;48.126;11.594;2023-12-07T10:00:47;2.10;99.90
7445;DHT22;3764;48.126;11.594;2023-12-07T10:03:20;2.20;99.90
7445;DHT22;3764;48.126;11.594;2023-12-07T10:05:55;2.20;99.90
7445;DHT22;3764;48.126;11.594;2023-12-07T10:08:30;2.20;99.90
7445;DHT22;3764;48.126;11.594;2023-12-07T10:11:05;2.20;99.90
7445;DHT22;3764;48.126;11.594;2023-12-07T10:13:33;2.30;99.90
7445;DHT22;3764;48.126;11.594;2023-12-07T10:16:08;2.30;99.90
7445;DHT22;3764;48.126;11.594;2023-12-07T10:18:36;2.30;99.90
7445;DHT22;3764;48.126;11.594;2023-12-07T10:21:05;2.40;99.90
7445;DHT22;3764;48.126;11.594;2023-12-07T10:23:34;2.40;99.90
7445;DHT22;3764;48.126;11.594;2023-12-07T10:26:02;2.40;99.90
7445;DHT22;3764;48.126;11.594;2023-12-07T10:28:29;2.50;99.90
7445;DHT22;3764;48.126;11.594;2023-12-07T10:30:57;2.50;99.90
7445;DHT22;3764;48.126;11.594;2023-12-07T10:33:26;2.60;99.90
7445;DHT22;3764;48.126;11.594;2023-12-07T10:35:53;2.60;99.90
7445;DHT22;3764;48.126;11.594;2023-12-07T10:38:20;2.60;99.90
7445;DHT22;3764;48.126;11.594;2023-12-07T10:40:53;2.60;99.90
7445;DHT22;3764;48.126;11.594;2023-12-07T10:43:27;2.70;99.90
7445;DHT22;3764;48.126;11.594;2023-12-07T10:45:55;2.60;99.90
7445;DHT22;3764;48.126;11.594;2023-12-07T10:48:22;2.70;99.90
7445;DHT22;3764;48.126;11.594;2023-12-07T10:50:52;2.70;99.90
7445;DHT22;3764;48.126;11.594;2023-12-07T10:53:27;2.70;99.90
7445;DHT22;3764;48.126;11.594;2023-12-07T10:56:00;2.80;99.90
7445;DHT22;3764;48.126;11.594;2023-12-07T10:58:27;2.80;99.90
7445;DHT22;3764;48.126;11.594;2023-12-07T11:00:55;2.80;99.90
7445;DHT22;3764;48.126;11.594;2023-12-07T11:03:24;2.80;99.90
7445;DHT22;3764;48.126;11.594;2023-12-07T11:05:51;2.80;99.90
7445;DHT22;3764;48.126;11.594;2023-12-07T11:08:25;2.80;99.90
7445;DHT22;3764;48.126;11.594;2023-12-07T11:11:01;2.80;99.90
7445;DHT22;3764;48.126;11.594;2023-12-07T11:13:33;2.90;99.90
7445;DHT22;3764;48.126;11.594;2023-12-07T11:16:03;2.90;99.90
7445;DHT22;3764;48.126;11.594;2023-12-07T11:18:30;2.90;99.90
7445;DHT22;3764;48.126;11.594;2023-12-07T11:20:58;2.90;99.90
7445;DHT22;3764;48.126;11.594;2023-12-07T11:23:27;3.00;99.90
7445;DHT22;3764;48.126;11.594;2023-12-07T11:25:55;3.00;99.90
7445;DHT22;3764;48.126;11.594;2023-12-07T11:28:35;3.00;99.90
7445;DHT22;3764;48.126;11.594;2023-12-07T11:31:04;3.00;99.90
7445;DHT22;3764;48.126;11.594;2023-12-07T11:33:32;3.00;99.90
7445;DHT22;3764;48.126;11.594;2023-12-07T11:36:04;3.00;99.90
7445;DHT22;3764;48.126;11.594;2023-12-07T11:38:31;3.00;99.90
7445;DHT22;3764;48.126;11.594;2023-12-07T11:40:59;3.10;99.90
7445;DHT22;3764;48.126;11.594;2023-12-07T11:43:44;3.10;99.90
7445;DHT22;3764;48.126;11.594;2023-12-07T11:46:12;3.10;99.90
7445;DHT22;3764;48.126;11.594;2023-12-07T11:48:40;3.10;99.90
7445;DHT22;3764;48.126;11.594;2023-12-07T11:51:11;3.10;99.90
7445;DHT22;3764;48.126;11.594;2023-12-07T11:53:38;3.10;99.90
7445;DHT22;3764;48.126;11.594;2023-12-07T11:56:07;3.10;99.90
7445;DHT22;3764;48.126;11.594;2023-12-07T11:58:36;3.10;99.90
7445;DHT22;3764;48.126;11.594;2023-12-07T12:01:05;3.10;99.90
7445;DHT22;3764;48.126;11.594;2023-12-07T12:03:33;3.10;99.90
7445;DHT22;3764;48.126;11.594;2023-12-07T12:06:04;3.10;99.90
7445;DHT22;3764;48.126;11.594;2023-12-07T12:08:31;3.20;99.90
7445;DHT22;3764;48.126;11.594;2023-12-07T12:10:59;3.20;99.90
7445;DHT22;3764;48.126;11.594;2023-12-07T12:13:27;3.20;99.90
7445;DHT22;3764;48.126;11.594;2023-12-07T12:15:55;3.20;99.90
7445;DHT22;3764;48.126;11.594;2023-12-07T12:18:24;3.20;99.90
7445;DHT22;3764;48.126;11.594;2023-12-07T12:20:52;3.20;99.90
7445;DHT22;3764;48.126;11.594;2023-12-07T12:23:20;3.20;99.90
7445;DHT22;3764;48.126;11.594;2023-12-07T12:25:48;3.20;99.90
7445;DHT22;3764;48.126;11.594;2023-12-07T12:28:17;3.20;99.90
7445;DHT22;3764;48.126;11.594;2023-12-07T12:30:48;3.30;99.90
7445;DHT22;3764;48.126;11.594;2023-12-07T12:33:15;3.30;99.90
7445;DHT22;3764;48.126;11.594;2023-12-07T12:35:43;3.20;99.90
7445;DHT22;3764;48.126;11.594;2023-12-07T12:38:11;3.20;99.90
7445;DHT22;3764;48.126;11.594;2023-12-07T12:40:39;3.20;99.90
7445;DHT22;3764;48.126;11.594;2023-12-07T12:43:07;3.20;99.90
7445;DHT22;3764;48.126;11.594;2023-12-07T12:45:36;3.20;99.90
7445;DHT22;3764;48.126;11.594;2023-12-07T12:48:04;3.20;99.90
7445;DHT22;3764;48.126;11.594;2023-12-07T12:50:34;3.20;99.90
7445;DHT22;3764;48.126;11.594;2023-12-07T12:53:06;3.20;99.90
7445;DHT22;3764;48.126;11.594;2023-12-07T12:55:35;3.20;99.90
7445;DHT22;3764;48.126;11.594;2023-12-07T12:58:03;3.20;99.90
7445;DHT22;3764;48.126;11.594;2023-12-07T13:00:31;3.20;99.90
7445;DHT22;3764;48.126;11.594;2023-12-07T13:03:00;3.20;99.90
7445;DHT22;3764;48.126;11.594;2023-12-07T13:05:27;3.20;99.90
7445;DHT22;3764;48.126;11.594;2023-12-07T13:07:54;3.20;99.90
7445;DHT22;3764;48.126;11.594;2023-12-07T13:10:23;3.20;99.90
7445;DHT22;3764;48.126;11.594;2023-12-07T13:12:50;3.20;99.90
7445;DHT22;3764;48.126;11.594;2023-12-07T13:15:17;3.10;99.90
7445;DHT22;3764;48.126;11.594;2023-12-07T13:17:45;3.10;99.90
7445;DHT22;3764;48.126;11.594;2023-12-07T13:20:12;3.10;99.90
7445;DHT22;3764;48.126;11.594;2023-12-07T13:22:40;3.10;99.90
7445;DHT22;3764;48.126;11.594;2023-12-07T13:25:09;3.10;99.90
7445;DHT22;3764;48.126;11.594;2023-12-07T13:27:39;3.10;99.90
7445;DHT22;3764;48.126;11.594;2023-12-07T13:30:07;3.20;99.90
7445;DHT22;3764;48.126;11.594;2023-12-07T13:32:35;3.10;99.90
7445;DHT22;3764;48.126;11.594;2023-12-07T13:35:04;3.10;99.90
7445;DHT22;3764;48.126;11.594;2023-12-07T13:37:31;3.10;99.90
7445;DHT22;3764;48.126;11.594;2023-12-07T13:39:59;3.10;99.90
7445;DHT22;3764;48.126;11.594;2023-12-07T13:42:29;3.10;99.90
7445;DHT22;3764;48.126;11.594;2023-12-07T13:44:59;3.10;99.90
7445;DHT22;3764;48.126;11.594;2023-12-07T13:47:27;3.10;99.90
7445;DHT22;3764;48.126;11.594;2023-12-07T13:49:57;3.10;99.90
7445;DHT22;3764;48.126;11.594;2023-12-07T13:52:24;3.00;99.90
7445;DHT22;3764;48.126;11.594;2023-12-07T13:54:52;3.00;99.90
7445;DHT22;3764;48.126;11.594;2023-12-07T13:57:19;3.00;99.90
7445;DHT22;3764;48.126;11.594;2023-12-07T13:59:46;3.00;99.90
7445;DHT22;3764;48.126;11.594;2023-12-07T14:02:15;3.00;99.90
7445;DHT22;3764;48.126;11.594;2023-12-07T14:04:43;3.00;99.90
7445;DHT22;3764;48.126;11.594;2023-12-07T14:07:11;2.90;99.90
7445;DHT22;3764;48.126;11.594;2023-12-07T14:09:41;2.90;99.90
7445;DHT22;3764;48.126;11.594;2023-12-07T14:12:08;2.90;99.90
7445;DHT22;3764;48.126;11.594;2023-12-07T14:14:38;2.90;99.90
7445;DHT22;3764;48.126;11.594;2023-12-07T14:17:06;2.90;99.90
7445;DHT22;3764;48.126;11.594;2023-12-07T14:19:34;2.90;99.90
7445;DHT22;3764;48.126;11.594;2023-12-07T14:22:02;2.90;99.90
7445;DHT22;3764;48.126;11.594;2023-12-07T14:24:29;2.90;99.90
7445;DHT22;3764;48.126;11.594;2023-12-07T14:26:57;2.80;99.90
7445;DHT22;3764;48.126;11.594;2023-12-07T14:29:25;2.80;99.90
7445;DHT22;3764;48.126;11.594;2023-12-07T14:31:52;2.80;99.90
7445;DHT22;3764;48.126;11.594;2023-12-07T14:34:19;2.80;99.90
7445;DHT22;3764;48.126;11.594;2023-12-07T14:36:48;2.70;99.90
7445;DHT22;3764;48.126;11.594;2023-12-07T14:39:15;2.70;99.90
7445;DHT22;3764;48.126;11.594;2023-12-07T14:41:44;2.70;99.90
7445;DHT22;3764;48.126;11.594;2023-12-07T14:44:13;2.80;99.90
7445;DHT22;3764;48.126;11.594;2023-12-07T14:46:42;2.70;99.90
7445;DHT22;3764;48.126;11.594;2023-12-07T14:49:10;2.70;99.90
7445;DHT22;3764;48.126;11.594;2023-12-07T14:51:37;2.70;99.90
7445;DHT22;3764;48.126;11.594;2023-12-07T14:54:06;2.70;99.90
7445;DHT22;3764;48.126;11.594;2023-12-07T14:56:35;2.70;99.90
7445;DHT22;3764;48.126;11.594;2023-12-07T14:59:02;2.60;99.90
7445;DHT22;3764;48.126;11.594;2023-12-07T15:01:30;2.60;99.90
7445;DHT22;3764;48.126;11.594;2023-12-07T15:03:57;2.50;99.90
7445;DHT22;3764;48.126;11.594;2023-12-07T15:06:24;2.60;99.90
7445;DHT22;3764;48.126;11.594;2023-12-07T15:08:52;2.60;99.90
7445;DHT22;3764;48.126;11.594;2023-12-07T15:11:21;2.60;99.90
7445;DHT22;3764;48.126;11.594;2023-12-07T15:13:48;2.60;99.90
7445;DHT22;3764;48.126;11.594;2023-12-07T15:16:15;2.60;99.90
7445;DHT22;3764;48.126;11.594;2023-12-07T15:18:44;2.60;99.90
7445;DHT22;3764;48.126;11.594;2023-12-07T15:21:12;2.50;99.90
7445;DHT22;3764;48.126;11.594;2023-12-07T15:23:41;2.60;99.90
7445;DHT22;3764;48.126;11.594;2023-12-07T15:26:08;2.50;99.90
7445;DHT22;3764;48.126;11.594;2023-12-07T15:28:38;2.60;99.90
7445;DHT22;3764;48.126;11.594;2023-12-07T15:31:06;2.50;99.90
7445;DHT22;3764;48.126;11.594;2023-12-07T15:33:34;2.60;99.90
7445;DHT22;3764;48.126;11.594;2023-12-07T15:36:03;2.60;99.90
7445;DHT22;3764;48.126;11.594;2023-12-07T15:38:30;2.60;99.90
7445;DHT22;3764;48.126;11.594;2023-12-07T15:40:58;2.60;99.90
7445;DHT22;3764;48.126;11.594;2023-12-07T15:43:28;2.60;99.90
7445;DHT22;3764;48.126;11.594;2023-12-07T15:45:56;2.60;99.90
7445;DHT22;3764;48.126;11.594;2023-12-07T15:48:24;2.50;99.90
7445;DHT22;3764;48.126;11.594;2023-12-07T15:50:51;2.60;99.90
7445;DHT22;3764;48.126;11.594;2023-12-07T15:53:18;2.50;99.90
7445;DHT22;3764;48.126;11.594;2023-12-07T15:55:45;2.60;99.90
7445;DHT22;3764;48.126;11.594;2023-12-07T15:58:13;2.60;99.90
7445;DHT22;3764;48.126;11.594;2023-12-07T16:00:41;2.60;99.90
7445;DHT22;3764;48.126;11.594;2023-12-07T16:03:09;2.60;99.90
7445;DHT22;3764;48.126;11.594;2023-12-07T16:05:37;2.60;99.90
7445;DHT22;3764;48.126;11.594;2023-12-07T16:08:04;2.60;99.90